sensor_id;sensor_type;location;lat;lon;timestamp;pressure;altitude;pressure_sealevel;temperature;humidity
5062;BME280;2351;50.812;12.872;2023-06-22T00:01:26;98220.53;;;17.96;100.00
5062;BME280;2351;50.812;12.872;2023-06-22T00:03:59;98223.91;;;17.98;100.00
5062;BME280;2351;50.812;12.872;2023-06-22T00:06:31;98228.25;;;17.99;100.00
5062;BME280;2351;50.812;12.872;2023-06-22T00:09:02;98211.16;;;18.00;100.00
5062;BME280;2351;50.812;12.872;2023-06-22T00:11:34;98218.19;;;18.01;100.00
5062;BME280;2351;50.812;12.872;2023-06-22T00:14:06;98212.84;;;18.01;100.00
5062;BME280;2351;50.812;12.872;2023-06-22T00:16:38;98200.78;;;17.97;100.00
5062;BME280;2351;50.812;12.872;2023-06-22T00:19:11;98198.28;;;17.96;100.00
5062;BME280;2351;50.812;12.872;2023-06-22T00:21:43;98196.94;;;17.91;100.00
5062;BME280;2351;50.812;12.872;2023-06-22T00:24:17;98198.31;;;17.87;100.00
5062;BME280;2351;50.812;12.872;2023-06-22T00:26:49;98195.13;;;17.84;100.00
5062;BME280;2351;50.812;12.872;2023-06-22T00:29:20;98199.16;;;17.80;100.00
5062;BME280;2351;50.812;12.872;2023-06-22T00:31:52;98200.34;;;17.77;100.00
5062;BME280;2351;50.812;12.872;2023-06-22T00:34:25;98204.03;;;17.76;100.00
5062;BME280;2351;50.812;12.872;2023-06-22T00:36:57;98210.22;;;17.76;100.00
5062;BME280;2351;50.812;12.872;2023-06-22T00:39:29;98201.16;;;17.77;100.00
5062;BME280;2351;50.812;12.872;2023-06-22T00:42:04;98207.19;;;17.80;100.00
5062;BME280;2351;50.812;12.872;2023-06-22T00:44:36;98210.72;;;17.80;100.00
5062;BME280;2351;50.812;12.872;2023-06-22T00:47:08;98216.06;;;17.80;100.00
5062;BME280;2351;50.812;12.872;2023-06-22T00:49:41;98200.53;;;17.75;100.00
5062;BME280;2351;50.812;12.872;2023-06-22T00:52:13;98202.38;;;17.75;100.00
5062;BME280;2351;50.812;12.872;2023-06-22T00:54:51;98191.19;;;17.71;100.00
5062;BME280;2351;50.812;12.872;2023-06-22T00:57:24;98192.53;;;17.67;100.00
5062;BME280;2351;50.812;12.872;2023-06-22T00:59:58;98193.72;;;17.65;100.00
5062;BME280;2351;50.812;12.872;2023-06-22T01:02:30;98191.84;;;17.65;100.00
5062;BME280;2351;50.812;12.872;2023-06-22T01:05:03;98192.19;;;17.62;100.00
5062;BME280;2351;50.812;12.872;2023-06-22T01:07:40;98186.19;;;17.60;100.00
5062;BME280;2351;50.812;12.872;2023-06-22T01:10:25;98193.72;;;17.56;100.00
5062;BME280;2351;50.812;12.872;2023-06-22T01:13:04;98193.88;;;17.55;100.00
5062;BME280;2351;50.812;12.872;2023-06-22T01:15:43;98198.41;;;17.54;100.00
5062;BME280;2351;50.812;12.872;2023-06-22T01:18:17;98199.59;;;17.52;100.00
5062;BME280;2351;50.812;12.872;2023-06-22T01:20:52;98204.28;;;17.50;100.00
5062;BME280;2351;50.812;12.872;2023-06-22T01:23:33;98203.59;;;17.48;100.00
5062;BME280;2351;50.812;12.872;2023-06-22T01:26:20;98195.25;;;17.34;100.00
5062;BME280;2351;50.812;12.872;2023-06-22T01:28:54;98199.78;;;17.25;100.00
5062;BME280;2351;50.812;12.872;2023-06-22T01:31:28;98199.28;;;17.22;100.00
5062;BME280;2351;50.812;12.872;2023-06-22T01:34:04;98201.47;;;17.18;100.00
5062;BME280;2351;50.812;12.872;2023-06-22T01:36:38;98197.47;;;17.14;100.00
5062;BME280;2351;50.812;12.872;2023-06-22T01:39:11;98187.91;;;17.11;100.00
5062;BME280;2351;50.812;12.872;2023-06-22T01:41:43;98183.56;;;17.10;100.00
5062;BME280;2351;50.812;12.872;2023-06-22T01:44:16;98182.09;;;17.08;100.00
5062;BME280;2351;50.812;12.872;2023-06-22T01:46:50;98185.09;;;17.05;100.00
5062;BME280;2351;50.812;12.872;2023-06-22T01:49:22;98178.25;;;17.02;100.00
5062;BME280;2351;50.812;12.872;2023-06-22T01:51:54;98176.59;;;17.01;100.00
5062;BME280;2351;50.812;12.872;2023-06-22T01:54:26;98177.59;;;17.00;100.00
5062;BME280;2351;50.812;12.872;2023-06-22T01:56:57;98177.91;;;16.97;100.00
5062;BME280;2351;50.812;12.872;2023-06-22T01:59:34;98176.25;;;16.96;100.00
5062;BME280;2351;50.812;12.872;2023-06-22T02:02:09;98172.75;;;16.95;100.00
5062;BME280;2351;50.812;12.872;2023-06-22T02:04:44;98171.03;;;16.94;100.00
5062;BME280;2351;50.812;12.872;2023-06-22T02:07:18;98165.84;;;16.93;100.00
5062;BME280;2351;50.812;12.872;2023-06-22T02:09:52;98174.56;;;16.86;100.00
5062;BME280;2351;50.812;12.872;2023-06-22T02:12:27;98177.88;;;16.80;100.00
5062;BME280;2351;50.812;12.872;2023-06-22T02:15:01;98179.22;;;16.76;100.00
5062;BME280;2351;50.812;12.872;2023-06-22T02:17:33;98183.88;;;16.74;100.00
5062;BME280;2351;50.812;12.872;2023-06-22T02:20:06;98181.88;;;16.76;100.00
5062;BME280;2351;50.812;12.872;2023-06-22T02:22:43;98196.75;;;16.79;100.00
5062;BME280;2351;50.812;12.872;2023-06-22T02:25:15;98202.94;;;16.79;100.00
5062;BME280;2351;50.812;12.872;2023-06-22T02:27:47;98202.94;;;16.79;100.00
5062;BME280;2351;50.812;12.872;2023-06-22T02:30:20;98195.75;;;16.80;100.00
5062;BME280;2351;50.812;12.872;2023-06-22T02:32:51;98185.22;;;16.78;100.00
5062;BME280;2351;50.812;12.872;2023-06-22T02:35:29;98186.22;;;16.77;100.00
5062;BME280;2351;50.812;12.872;2023-06-22T02:38:03;98179.41;;;16.75;100.00
5062;BME280;2351;50.812;12.872;2023-06-22T02:40:35;98177.88;;;16.64;100.00
5062;BME280;2351;50.812;12.872;2023-06-22T02:43:07;98179.72;;;16.55;100.00
5062;BME280;2351;50.812;12.872;2023-06-22T02:45:40;98163.47;;;16.48;100.00
5062;BME280;2351;50.812;12.872;2023-06-22T02:48:11;98153.13;;;16.45;100.00
5062;BME280;2351;50.812;12.872;2023-06-22T02:50:43;98150.63;;;16.44;100.00
5062;BME280;2351;50.812;12.872;2023-06-22T02:53:15;98160.31;;;16.45;100.00
5062;BME280;2351;50.812;12.872;2023-06-22T02:55:46;98176.16;;;16.46;100.00
5062;BME280;2351;50.812;12.872;2023-06-22T02:58:18;98178.53;;;16.41;100.00
5062;BME280;2351;50.812;12.872;2023-06-22T03:00:51;98181.34;;;16.39;100.00
5062;BME280;2351;50.812;12.872;2023-06-22T03:03:23;98178.97;;;16.36;100.00
5062;BME280;2351;50.812;12.872;2023-06-22T03:05:56;98180.84;;;16.36;100.00
5062;BME280;2351;50.812;12.872;2023-06-22T03:08:28;98178.84;;;16.38;100.00
5062;BME280;2351;50.812;12.872;2023-06-22T03:11:00;98177.16;;;16.37;100.00
5062;BME280;2351;50.812;12.872;2023-06-22T03:13:32;98171.66;;;16.38;100.00
5062;BME280;2351;50.812;12.872;2023-06-22T03:16:05;98168.84;;;16.40;100.00
5062;BME280;2351;50.812;12.872;2023-06-22T03:18:36;98165.31;;;16.39;100.00
5062;BME280;2351;50.812;12.872;2023-06-22T03:21:08;98169.50;;;16.42;100.00
5062;BME280;2351;50.812;12.872;2023-06-22T03:23:40;98159.66;;;16.42;100.00
5062;BME280;2351;50.812;12.872;2023-06-22T03:26:12;98155.16;;;16.43;100.00
5062;BME280;2351;50.812;12.872;2023-06-22T03:28:43;98163.81;;;16.45;100.00
5062;BME280;2351;50.812;12.872;2023-06-22T03:31:16;98178.69;;;16.48;100.00
5062;BME280;2351;50.812;12.872;2023-06-22T03:33:51;98165.16;;;16.49;100.00
5062;BME280;2351;50.812;12.872;2023-06-22T03:36:23;98173.84;;;16.51;100.00
5062;BME280;2351;50.812;12.872;2023-06-22T03:38:55;98164.84;;;16.52;100.00
5062;BME280;2351;50.812;12.872;2023-06-22T03:41:27;98151.47;;;16.52;100.00
5062;BME280;2351;50.812;12.872;2023-06-22T03:43:58;98151.16;;;16.55;100.00
5062;BME280;2351;50.812;12.872;2023-06-22T03:46:32;98152.81;;;16.56;100.00
5062;BME280;2351;50.812;12.872;2023-06-22T03:49:03;98161.50;;;16.59;100.00
5062;BME280;2351;50.812;12.872;2023-06-22T03:51:35;98157.84;;;16.60;100.00
5062;BME280;2351;50.812;12.872;2023-06-22T03:54:07;98164.19;;;16.59;100.00
5062;BME280;2351;50.812;12.872;2023-06-22T03:56:38;98166.66;;;16.60;100.00
5062;BME280;2351;50.812;12.872;2023-06-22T03:59:10;98171.53;;;16.65;100.00
5062;BME280;2351;50.812;12.872;2023-06-22T04:01:43;98183.72;;;16.67;100.00
5062;BME280;2351;50.812;12.872;2023-06-22T04:04:15;98189.41;;;16.73;100.00
5062;BME280;2351;50.812;12.872;2023-06-22T04:06:47;98205.75;;;16.78;100.00
5062;BME280;2351;50.812;12.872;2023-06-22T04:09:19;98208.97;;;16.81;100.00
5062;BME280;2351;50.812;12.872;2023-06-22T04:11:51;98211.81;;;16.88;100.00
5062;BME280;2351;50.812;12.872;2023-06-22T04:14:23;98223.53;;;16.95;100.00
5062;BME280;2351;50.812;12.872;2023-06-22T04:16:57;98225.53;;;17.01;100.00
5062;BME280;2351;50.812;12.872;2023-06-22T04:19:29;98232.75;;;17.09;100.00
5062;BME280;2351;50.812;12.872;2023-06-22T04:22:01;98241.75;;;17.16;100.00
5062;BME280;2351;50.812;12.872;2023-06-22T04:24:33;98244.56;;;17.23;100.00
5062;BME280;2351;50.812;12.872;2023-06-22T04:27:05;98259.28;;;17.27;100.00
5062;BME280;2351;50.812;12.872;2023-06-22T04:29:37;98273.19;;;17.31;100.00
5062;BME280;2351;50.812;12.872;2023-06-22T04:32:20;98284.53;;;17.33;100.00
5062;BME280;2351;50.812;12.872;2023-06-22T04:34:52;98294.91;;;17.36;100.00
5062;BME280;2351;50.812;12.872;2023-06-22T04:37:24;98289.72;;;17.43;100.00
5062;BME280;2351;50.812;12.872;2023-06-22T04:39:55;98291.91;;;17.48;100.00
5062;BME280;2351;50.812;12.872;2023-06-22T04:42:27;98295.72;;;17.53;100.00
5062;BME280;2351;50.812;12.872;2023-06-22T04:44:59;98289.88;;;17.58;100.00
5062;BME280;2351;50.812;12.872;2023-06-22T04:47:32;98284.84;;;17.63;100.00
5062;BME280;2351;50.812;12.872;2023-06-22T04:50:04;98277.97;;;17.69;100.00
5062;BME280;2351;50.812;12.872;2023-06-22T04:52:36;98268.09;;;17.77;100.00
5062;BME280;2351;50.812;12.872;2023-06-22T04:55:08;98251.19;;;17.85;100.00
5062;BME280;2351;50.812;12.872;2023-06-22T04:57:40;98256.06;;;17.98;100.00
5062;BME280;2351;50.812;12.872;2023-06-22T05:00:19;98257.69;;;18.08;100.00
5062;BME280;2351;50.812;12.872;2023-06-22T05:02:55;98265.03;;;18.14;100.00
5062;BME280;2351;50.812;12.872;2023-06-22T05:05:28;98256.66;;;18.17;100.00
5062;BME280;2351;50.812;12.872;2023-06-22T05:08:01;98255.13;;;18.14;100.00
5062;BME280;2351;50.812;12.872;2023-06-22T05:10:33;98251.44;;;18.15;100.00
5062;BME280;2351;50.812;12.872;2023-06-22T05:13:05;98260.44;;;18.31;100.00
5062;BME280;2351;50.812;12.872;2023-06-22T05:15:37;98253.81;;;18.50;100.00
5062;BME280;2351;50.812;12.872;2023-06-22T05:18:12;98249.84;;;18.69;100.00
5062;BME280;2351;50.812;12.872;2023-06-22T05:20:44;98246.59;;;18.82;100.00
5062;BME280;2351;50.812;12.872;2023-06-22T05:23:16;98231.09;;;18.92;100.00
5062;BME280;2351;50.812;12.872;2023-06-22T05:25:49;98227.38;;;19.02;100.00
5062;BME280;2351;50.812;12.872;2023-06-22T05:28:21;98220.75;;;19.13;100.00
5062;BME280;2351;50.812;12.872;2023-06-22T05:30:53;98219.66;;;19.22;100.00
5062;BME280;2351;50.812;12.872;2023-06-22T05:33:26;98200.81;;;19.30;100.00
5062;BME280;2351;50.812;12.872;2023-06-22T05:35:58;98177.41;;;19.39;100.00
5062;BME280;2351;50.812;12.872;2023-06-22T05:38:30;98141.34;;;19.41;100.00
5062;BME280;2351;50.812;12.872;2023-06-22T05:41:02;98105.44;;;19.27;100.00
5062;BME280;2351;50.812;12.872;2023-06-22T05:43:33;98046.41;;;19.27;100.00
5062;BME280;2351;50.812;12.872;2023-06-22T05:46:05;98000.06;;;19.19;100.00
5062;BME280;2351;50.812;12.872;2023-06-22T05:48:39;98017.34;;;19.16;100.00
5062;BME280;2351;50.812;12.872;2023-06-22T05:51:10;98035.94;;;19.33;100.00
5062;BME280;2351;50.812;12.872;2023-06-22T05:53:42;98042.13;;;19.48;100.00
5062;BME280;2351;50.812;12.872;2023-06-22T05:56:14;98051.91;;;19.71;100.00
5062;BME280;2351;50.812;12.872;2023-06-22T05:58:46;98059.94;;;19.86;100.00
5062;BME280;2351;50.812;12.872;2023-06-22T06:01:18;98059.25;;;19.99;100.00
5062;BME280;2351;50.812;12.872;2023-06-22T06:03:52;98065.59;;;20.13;100.00
5062;BME280;2351;50.812;12.872;2023-06-22T06:06:23;98076.94;;;20.30;100.00
5062;BME280;2351;50.812;12.872;2023-06-22T06:08:58;98081.09;;;20.76;100.00
5062;BME280;2351;50.812;12.872;2023-06-22T06:11:30;98099.69;;;21.63;100.00
5062;BME280;2351;50.812;12.872;2023-06-22T06:14:02;98095.94;;;22.19;100.00
5062;BME280;2351;50.812;12.872;2023-06-22T06:16:34;98074.88;;;22.70;100.00
5062;BME280;2351;50.812;12.872;2023-06-22T06:19:07;98082.56;;;22.93;100.00
5062;BME280;2351;50.812;12.872;2023-06-22T06:21:40;98092.94;;;22.96;100.00
5062;BME280;2351;50.812;12.872;2023-06-22T06:24:13;98095.84;;;22.88;100.00
5062;BME280;2351;50.812;12.872;2023-06-22T06:26:45;98095.00;;;22.87;99.31
5062;BME280;2351;50.812;12.872;2023-06-22T06:29:17;98097.94;;;22.86;97.27
5062;BME280;2351;50.812;12.872;2023-06-22T06:31:49;98090.66;;;22.80;96.39
5062;BME280;2351;50.812;12.872;2023-06-22T06:34:22;98100.41;;;22.67;94.60
5062;BME280;2351;50.812;12.872;2023-06-22T06:36:54;98103.31;;;22.66;94.67
5062;BME280;2351;50.812;12.872;2023-06-22T06:39:26;98105.59;;;22.62;94.22
5062;BME280;2351;50.812;12.872;2023-06-22T06:41:57;98104.97;;;22.53;91.74
5062;BME280;2351;50.812;12.872;2023-06-22T06:44:29;98119.22;;;22.40;88.46
5062;BME280;2351;50.812;12.872;2023-06-22T06:47:01;98106.22;;;22.58;89.80
5062;BME280;2351;50.812;12.872;2023-06-22T06:49:34;98108.28;;;22.76;89.85
5062;BME280;2351;50.812;12.872;2023-06-22T06:52:06;98105.59;;;22.96;89.26
5062;BME280;2351;50.812;12.872;2023-06-22T06:54:38;98103.09;;;23.14;88.99
5062;BME280;2351;50.812;12.872;2023-06-22T06:57:12;98109.34;;;23.28;88.29
5062;BME280;2351;50.812;12.872;2023-06-22T06:59:45;98101.19;;;23.42;88.01
5062;BME280;2351;50.812;12.872;2023-06-22T07:02:17;98115.50;;;23.56;87.41
5062;BME280;2351;50.812;12.872;2023-06-22T07:04:50;98115.28;;;23.64;86.75
5062;BME280;2351;50.812;12.872;2023-06-22T07:07:22;98108.19;;;23.70;86.27
5062;BME280;2351;50.812;12.872;2023-06-22T07:09:54;98107.53;;;23.81;85.91
5062;BME280;2351;50.812;12.872;2023-06-22T07:12:26;98104.19;;;23.86;83.79
5062;BME280;2351;50.812;12.872;2023-06-22T07:15:01;98104.13;;;23.99;83.23
5062;BME280;2351;50.812;12.872;2023-06-22T07:17:33;98098.84;;;24.18;83.37
5062;BME280;2351;50.812;12.872;2023-06-22T07:20:08;98113.81;;;24.20;78.98
5062;BME280;2351;50.812;12.872;2023-06-22T07:22:43;98109.22;;;24.21;75.88
5062;BME280;2351;50.812;12.872;2023-06-22T07:25:16;98108.19;;;24.22;76.43
5062;BME280;2351;50.812;12.872;2023-06-22T07:27:57;98109.50;;;24.13;72.69
5062;BME280;2351;50.812;12.872;2023-06-22T07:30:30;98106.09;;;24.24;72.80
5062;BME280;2351;50.812;12.872;2023-06-22T07:33:02;98101.69;;;24.30;71.93
5062;BME280;2351;50.812;12.872;2023-06-22T07:35:38;98089.56;;;24.39;72.10
5062;BME280;2351;50.812;12.872;2023-06-22T07:38:09;98090.38;;;24.46;71.41
5062;BME280;2351;50.812;12.872;2023-06-22T07:40:41;98099.47;;;24.52;70.60
5062;BME280;2351;50.812;12.872;2023-06-22T07:43:13;98091.91;;;24.61;69.76
5062;BME280;2351;50.812;12.872;2023-06-22T07:45:48;98091.09;;;24.60;69.17
5062;BME280;2351;50.812;12.872;2023-06-22T07:48:22;98092.25;;;24.78;70.11
5062;BME280;2351;50.812;12.872;2023-06-22T07:50:55;98088.53;;;24.98;69.92
5062;BME280;2351;50.812;12.872;2023-06-22T07:53:27;98089.28;;;25.05;68.32
5062;BME280;2351;50.812;12.872;2023-06-22T07:55:59;98084.63;;;25.12;68.99
5062;BME280;2351;50.812;12.872;2023-06-22T07:58:31;98083.97;;;25.17;67.87
5062;BME280;2351;50.812;12.872;2023-06-22T08:01:03;98079.91;;;25.26;68.13
5062;BME280;2351;50.812;12.872;2023-06-22T08:03:34;98082.94;;;25.36;67.19
5062;BME280;2351;50.812;12.872;2023-06-22T08:06:07;98077.03;;;25.46;67.74
5062;BME280;2351;50.812;12.872;2023-06-22T08:08:40;98081.00;;;25.62;68.60
5062;BME280;2351;50.812;12.872;2023-06-22T08:11:12;98083.47;;;25.82;67.92
5062;BME280;2351;50.812;12.872;2023-06-22T08:13:44;98081.72;;;25.88;66.33
5062;BME280;2351;50.812;12.872;2023-06-22T08:16:16;98083.19;;;25.91;64.47
5062;BME280;2351;50.812;12.872;2023-06-22T08:18:48;98075.66;;;25.74;62.91
5062;BME280;2351;50.812;12.872;2023-06-22T08:21:21;98076.03;;;25.78;63.59
5062;BME280;2351;50.812;12.872;2023-06-22T08:23:53;98068.88;;;25.83;63.11
5062;BME280;2351;50.812;12.872;2023-06-22T08:26:24;98065.38;;;25.95;63.53
5062;BME280;2351;50.812;12.872;2023-06-22T08:28:56;98065.66;;;26.05;63.10
5062;BME280;2351;50.812;12.872;2023-06-22T08:31:28;98063.03;;;26.17;62.00
5062;BME280;2351;50.812;12.872;2023-06-22T08:34:00;98057.16;;;26.20;62.13
5062;BME280;2351;50.812;12.872;2023-06-22T08:36:33;98061.16;;;26.29;62.40
5062;BME280;2351;50.812;12.872;2023-06-22T08:39:15;98053.16;;;26.35;62.14
5062;BME280;2351;50.812;12.872;2023-06-22T08:41:47;98053.66;;;26.43;62.28
5062;BME280;2351;50.812;12.872;2023-06-22T08:44:19;98044.13;;;26.53;62.13
5062;BME280;2351;50.812;12.872;2023-06-22T08:46:51;98038.34;;;26.61;61.95
5062;BME280;2351;50.812;12.872;2023-06-22T08:49:22;98040.38;;;26.66;61.12
5062;BME280;2351;50.812;12.872;2023-06-22T08:51:55;98042.72;;;26.74;61.26
5062;BME280;2351;50.812;12.872;2023-06-22T08:54:27;98035.94;;;26.83;61.46
5062;BME280;2351;50.812;12.872;2023-06-22T08:56:59;98038.06;;;26.93;61.35
5062;BME280;2351;50.812;12.872;2023-06-22T08:59:31;98047.38;;;26.85;59.28
5062;BME280;2351;50.812;12.872;2023-06-22T09:02:03;98046.66;;;26.90;59.59
5062;BME280;2351;50.812;12.872;2023-06-22T09:04:35;98045.00;;;26.89;58.09
5062;BME280;2351;50.812;12.872;2023-06-22T09:07:08;98046.19;;;26.81;57.96
5062;BME280;2351;50.812;12.872;2023-06-22T09:09:39;98041.13;;;26.85;58.81
5062;BME280;2351;50.812;12.872;2023-06-22T09:12:11;98046.91;;;27.00;59.10
5062;BME280;2351;50.812;12.872;2023-06-22T09:14:43;98039.56;;;27.13;59.14
5062;BME280;2351;50.812;12.872;2023-06-22T09:17:15;98036.38;;;27.16;58.30
5062;BME280;2351;50.812;12.872;2023-06-22T09:19:47;98032.03;;;27.15;55.99
5062;BME280;2351;50.812;12.872;2023-06-22T09:22:20;98028.84;;;27.18;57.21
5062;BME280;2351;50.812;12.872;2023-06-22T09:24:52;98029.63;;;27.30;57.08
5062;BME280;2351;50.812;12.872;2023-06-22T09:27:25;98021.00;;;27.33;55.79
5062;BME280;2351;50.812;12.872;2023-06-22T09:29:57;98017.56;;;27.38;56.14
5062;BME280;2351;50.812;12.872;2023-06-22T09:32:29;98028.09;;;27.34;55.49
5062;BME280;2351;50.812;12.872;2023-06-22T09:35:03;98007.91;;;27.30;55.21
5062;BME280;2351;50.812;12.872;2023-06-22T09:37:37;98017.34;;;27.40;55.55
5062;BME280;2351;50.812;12.872;2023-06-22T09:40:09;98012.72;;;27.40;55.52
5062;BME280;2351;50.812;12.872;2023-06-22T09:42:41;98012.72;;;27.52;55.81
5062;BME280;2351;50.812;12.872;2023-06-22T09:45:14;98010.53;;;27.66;55.43
5062;BME280;2351;50.812;12.872;2023-06-22T09:51:59;98009.22;;;27.80;55.23
5062;BME280;2351;50.812;12.872;2023-06-22T10:02:30;97989.72;;;28.01;54.52
5062;BME280;2351;50.812;12.872;2023-06-22T10:05:02;97988.06;;;28.00;54.64
5062;BME280;2351;50.812;12.872;2023-06-22T10:07:34;97990.69;;;27.94;54.83
5062;BME280;2351;50.812;12.872;2023-06-22T10:10:10;97989.47;;;28.02;55.36
5062;BME280;2351;50.812;12.872;2023-06-22T10:12:45;97992.97;;;28.15;55.48
5062;BME280;2351;50.812;12.872;2023-06-22T10:15:17;97993.88;;;28.20;55.88
5062;BME280;2351;50.812;12.872;2023-06-22T10:17:51;97994.94;;;28.19;55.75
5062;BME280;2351;50.812;12.872;2023-06-22T10:20:23;97990.56;;;28.01;54.70
5062;BME280;2351;50.812;12.872;2023-06-22T10:22:56;97991.38;;;28.02;56.18
5062;BME280;2351;50.812;12.872;2023-06-22T10:25:28;97990.97;;;28.10;56.22
5062;BME280;2351;50.812;12.872;2023-06-22T10:28:00;97982.09;;;28.15;55.01
5062;BME280;2351;50.812;12.872;2023-06-22T10:30:32;97973.81;;;28.09;55.32
5062;BME280;2351;50.812;12.872;2023-06-22T10:33:06;97979.97;;;28.17;55.92
5062;BME280;2351;50.812;12.872;2023-06-22T10:35:38;97976.59;;;28.26;56.02
5062;BME280;2351;50.812;12.872;2023-06-22T10:38:09;97973.88;;;28.26;55.87
5062;BME280;2351;50.812;12.872;2023-06-22T10:40:41;97971.63;;;28.23;55.92
5062;BME280;2351;50.812;12.872;2023-06-22T10:43:13;97965.72;;;28.26;56.24
5062;BME280;2351;50.812;12.872;2023-06-22T10:45:45;97963.31;;;28.30;56.08
5062;BME280;2351;50.812;12.872;2023-06-22T10:48:18;97961.00;;;28.39;56.39
5062;BME280;2351;50.812;12.872;2023-06-22T10:50:50;97958.44;;;28.49;55.77
5062;BME280;2351;50.812;12.872;2023-06-22T10:53:23;97958.03;;;28.58;55.73
5062;BME280;2351;50.812;12.872;2023-06-22T10:55:55;97960.63;;;28.69;54.54
5062;BME280;2351;50.812;12.872;2023-06-22T10:58:27;97954.22;;;28.59;54.25
5062;BME280;2351;50.812;12.872;2023-06-22T11:00:59;97945.50;;;28.56;54.39
5062;BME280;2351;50.812;12.872;2023-06-22T11:03:32;97955.16;;;28.47;54.90
5062;BME280;2351;50.812;12.872;2023-06-22T11:06:04;97948.53;;;28.43;54.68
5062;BME280;2351;50.812;12.872;2023-06-22T11:08:36;97947.06;;;28.52;54.36
5062;BME280;2351;50.812;12.872;2023-06-22T11:11:08;97955.47;;;28.51;53.96
5062;BME280;2351;50.812;12.872;2023-06-22T11:13:39;97947.63;;;28.54;53.80
5062;BME280;2351;50.812;12.872;2023-06-22T11:16:11;97945.25;;;28.41;53.53
5062;BME280;2351;50.812;12.872;2023-06-22T11:18:44;97945.16;;;28.36;54.24
5062;BME280;2351;50.812;12.872;2023-06-22T11:21:16;97944.59;;;28.34;52.86
5062;BME280;2351;50.812;12.872;2023-06-22T11:23:48;97937.44;;;28.45;53.46
5062;BME280;2351;50.812;12.872;2023-06-22T11:26:20;97938.97;;;28.58;52.90
5062;BME280;2351;50.812;12.872;2023-06-22T11:28:52;97929.97;;;28.74;53.16
5062;BME280;2351;50.812;12.872;2023-06-22T11:31:25;97930.44;;;28.71;51.88
5062;BME280;2351;50.812;12.872;2023-06-22T11:33:59;97930.44;;;28.71;52.92
5062;BME280;2351;50.812;12.872;2023-06-22T11:36:53;97920.44;;;28.94;53.52
5062;BME280;2351;50.812;12.872;2023-06-22T11:39:29;97926.22;;;29.20;52.66
5062;BME280;2351;50.812;12.872;2023-06-22T11:42:02;97924.41;;;29.08;50.63
5062;BME280;2351;50.812;12.872;2023-06-22T11:44:35;97925.69;;;28.78;51.39
5062;BME280;2351;50.812;12.872;2023-06-22T11:47:10;97907.84;;;28.70;52.08
5062;BME280;2351;50.812;12.872;2023-06-22T11:49:43;97908.28;;;28.79;52.49
5062;BME280;2351;50.812;12.872;2023-06-22T11:52:15;97908.91;;;28.86;52.86
5062;BME280;2351;50.812;12.872;2023-06-22T11:54:48;97910.53;;;28.88;52.06
5062;BME280;2351;50.812;12.872;2023-06-22T11:57:19;97901.19;;;28.78;51.35
5062;BME280;2351;50.812;12.872;2023-06-22T11:59:51;97897.78;;;28.71;52.03
5062;BME280;2351;50.812;12.872;2023-06-22T12:02:24;97894.00;;;28.72;52.09
5062;BME280;2351;50.812;12.872;2023-06-22T12:04:57;97896.06;;;28.82;51.56
5062;BME280;2351;50.812;12.872;2023-06-22T12:07:29;97882.81;;;28.91;51.78
5062;BME280;2351;50.812;12.872;2023-06-22T12:10:02;97884.25;;;28.98;51.27
5062;BME280;2351;50.812;12.872;2023-06-22T12:12:35;97872.66;;;29.08;49.89
5062;BME280;2351;50.812;12.872;2023-06-22T12:15:08;97874.38;;;29.14;49.68
5062;BME280;2351;50.812;12.872;2023-06-22T12:17:41;97867.28;;;29.13;50.14
5062;BME280;2351;50.812;12.872;2023-06-22T12:20:14;97864.69;;;29.24;48.95
5062;BME280;2351;50.812;12.872;2023-06-22T12:22:47;97858.25;;;29.35;49.57
5062;BME280;2351;50.812;12.872;2023-06-22T12:25:23;97863.16;;;29.60;49.95
5062;BME280;2351;50.812;12.872;2023-06-22T12:27:58;97867.84;;;29.65;48.29
5062;BME280;2351;50.812;12.872;2023-06-22T12:30:36;97859.78;;;29.81;48.95
5062;BME280;2351;50.812;12.872;2023-06-22T12:36:48;97850.44;;;29.99;48.84
5062;BME280;2351;50.812;12.872;2023-06-22T12:39:39;97850.25;;;30.16;47.62
5062;BME280;2351;50.812;12.872;2023-06-22T12:42:16;97851.53;;;29.98;47.49
5062;BME280;2351;50.812;12.872;2023-06-22T12:44:52;97845.28;;;30.02;48.25
5062;BME280;2351;50.812;12.872;2023-06-22T12:51:39;97826.97;;;30.46;47.87
5062;BME280;2351;50.812;12.872;2023-06-22T13:01:24;97807.50;;;30.80;47.44
5062;BME280;2351;50.812;12.872;2023-06-22T13:03:58;97809.13;;;30.76;46.65
5062;BME280;2351;50.812;12.872;2023-06-22T13:06:32;97799.53;;;30.63;46.70
5062;BME280;2351;50.812;12.872;2023-06-22T13:09:13;97808.53;;;30.15;47.03
5062;BME280;2351;50.812;12.872;2023-06-22T13:11:49;97807.13;;;30.13;48.25
5062;BME280;2351;50.812;12.872;2023-06-22T13:56:13;97763.38;;;31.24;44.96
5062;BME280;2351;50.812;12.872;2023-06-22T13:58:45;97749.44;;;31.26;45.50
5062;BME280;2351;50.812;12.872;2023-06-22T14:01:17;97751.59;;;31.08;45.24
5062;BME280;2351;50.812;12.872;2023-06-22T14:03:49;97739.25;;;31.01;45.56
5062;BME280;2351;50.812;12.872;2023-06-22T14:06:21;97727.56;;;31.10;45.91
5062;BME280;2351;50.812;12.872;2023-06-22T14:08:53;97726.47;;;31.12;46.05
5062;BME280;2351;50.812;12.872;2023-06-22T14:11:28;97718.53;;;31.25;46.14
5062;BME280;2351;50.812;12.872;2023-06-22T14:14:00;97726.69;;;30.94;45.37
5062;BME280;2351;50.812;12.872;2023-06-22T14:16:31;97723.41;;;30.77;45.75
5062;BME280;2351;50.812;12.872;2023-06-22T14:19:03;97723.41;;;30.77;46.44
5062;BME280;2351;50.812;12.872;2023-06-22T14:21:35;97713.25;;;30.62;46.15
5062;BME280;2351;50.812;12.872;2023-06-22T14:24:08;97716.53;;;30.69;46.93
5062;BME280;2351;50.812;12.872;2023-06-22T14:26:48;97713.56;;;30.81;46.22
5062;BME280;2351;50.812;12.872;2023-06-22T14:29:22;97700.19;;;30.90;46.89
5062;BME280;2351;50.812;12.872;2023-06-22T14:31:54;97707.50;;;30.63;45.99
5062;BME280;2351;50.812;12.872;2023-06-22T14:34:26;97691.69;;;30.81;46.89
5062;BME280;2351;50.812;12.872;2023-06-22T14:36:58;97684.63;;;30.90;46.87
5062;BME280;2351;50.812;12.872;2023-06-22T14:39:29;97693.38;;;31.03;46.07
5062;BME280;2351;50.812;12.872;2023-06-22T14:42:03;97683.03;;;31.25;45.75
5062;BME280;2351;50.812;12.872;2023-06-22T14:44:35;97678.13;;;31.17;45.74